sensor_id;sensor_type;location;lat;lon;timestamp;pressure;altitude;pressure_sealevel;temperature;humidity
59859;BME280;45734;53.648;9.566;2023-02-14T00:03:00;53896.44;;;-145.06;100.00
59859;BME280;45734;53.648;9.566;2023-02-14T00:08:01;53892.38;;;-145.06;100.00
59859;BME280;45734;53.648;9.566;2023-02-14T00:13:01;53855.94;;;-145.06;100.00
59859;BME280;45734;53.648;9.566;2023-02-14T00:18:01;53843.78;;;-145.06;100.00
59859;BME280;45734;53.648;9.566;2023-02-14T00:23:02;53868.09;;;-145.06;100.00
59859;BME280;45734;53.648;9.566;2023-02-14T00:28:02;53849.84;;;-145.06;100.00
59859;BME280;45734;53.648;9.566;2023-02-14T00:33:03;53896.44;;;-145.06;100.00
59859;BME280;45734;53.648;9.566;2023-02-14T00:38:04;53827.59;;;-145.06;100.00
59859;BME280;45734;53.648;9.566;2023-02-14T00:43:04;53876.19;;;-145.06;100.00
59859;BME280;45734;53.648;9.566;2023-02-14T00:48:04;53912.63;;;-145.06;100.00
59859;BME280;45734;53.648;9.566;2023-02-14T00:53:05;53900.50;;;-145.06;100.00
59859;BME280;45734;53.648;9.566;2023-02-14T00:58:05;53896.44;;;-145.06;100.00
59859;BME280;45734;53.648;9.566;2023-02-14T01:03:06;53849.84;;;-145.06;100.00
59859;BME280;45734;53.648;9.566;2023-02-14T01:08:06;53870.09;;;-145.06;100.00
59859;BME280;45734;53.648;9.566;2023-02-14T01:13:06;53862.00;;;-145.06;100.00
59859;BME280;45734;53.648;9.566;2023-02-14T01:18:07;53849.84;;;-145.06;100.00
59859;BME280;45734;53.648;9.566;2023-02-14T01:23:07;53815.44;;;-145.06;100.00
59859;BME280;45734;53.648;9.566;2023-02-14T01:28:08;53829.59;;;-145.06;100.00
59859;BME280;45734;53.648;9.566;2023-02-14T01:33:08;53890.38;;;-145.06;100.00
59859;BME280;45734;53.648;9.566;2023-02-14T01:38:08;53882.25;;;-145.06;100.00
59859;BME280;45734;53.648;9.566;2023-02-14T01:43:15;53851.88;;;-145.06;100.00
59859;BME280;45734;53.648;9.566;2023-02-14T01:48:17;53821.50;;;-145.06;100.00
59859;BME280;45734;53.648;9.566;2023-02-14T01:53:27;53874.16;;;-145.06;100.00
59859;BME280;45734;53.648;9.566;2023-02-14T01:58:29;53847.84;;;-145.06;100.00
59859;BME280;45734;53.648;9.566;2023-02-14T02:03:38;53864.03;;;-145.06;100.00
59859;BME280;45734;53.648;9.566;2023-02-14T02:08:47;53855.94;;;-145.06;100.00
59859;BME280;45734;53.648;9.566;2023-02-14T02:13:49;53866.06;;;-145.06;100.00
59859;BME280;45734;53.648;9.566;2023-02-14T02:19:00;53880.22;;;-145.06;100.00
59859;BME280;45734;53.648;9.566;2023-02-14T02:45:53;53859.97;;;-145.06;100.00
59859;BME280;45734;53.648;9.566;2023-02-14T02:51:20;53896.44;;;-145.06;100.00
59859;BME280;45734;53.648;9.566;2023-02-14T02:56:48;53827.59;;;-145.06;100.00
59859;BME280;45734;53.648;9.566;2023-02-14T03:06:59;53874.16;;;-145.06;100.00
59859;BME280;45734;53.648;9.566;2023-02-14T03:12:06;53880.22;;;-145.06;100.00
59859;BME280;45734;53.648;9.566;2023-02-14T03:27:45;53866.06;;;-145.06;100.00
59859;BME280;45734;53.648;9.566;2023-02-14T03:33:26;53821.50;;;-145.06;100.00
59859;BME280;45734;53.648;9.566;2023-02-14T03:38:24;53876.19;;;-145.06;100.00
59859;BME280;45734;53.648;9.566;2023-02-14T03:43:33;53849.84;;;-145.06;100.00
59859;BME280;45734;53.648;9.566;2023-02-14T03:48:35;53847.84;;;-145.06;100.00
59859;BME280;45734;53.648;9.566;2023-02-14T03:53:39;53880.22;;;-145.06;100.00
59859;BME280;45734;53.648;9.566;2023-02-14T03:58:42;53886.31;;;-145.06;100.00
59859;BME280;45734;53.648;9.566;2023-02-14T04:03:44;53833.66;;;-145.06;100.00
59859;BME280;45734;53.648;9.566;2023-02-14T04:08:45;53900.50;;;-145.06;100.00
59859;BME280;45734;53.648;9.566;2023-02-14T04:13:45;53843.78;;;-145.06;100.00
59859;BME280;45734;53.648;9.566;2023-02-14T04:18:46;53837.72;;;-145.06;100.00
59859;BME280;45734;53.648;9.566;2023-02-14T04:24:05;53862.00;;;-145.06;100.00
59859;BME280;45734;53.648;9.566;2023-02-14T04:29:05;53870.09;;;-145.06;100.00
59859;BME280;45734;53.648;9.566;2023-02-14T04:34:05;53859.97;;;-145.06;100.00
59859;BME280;45734;53.648;9.566;2023-02-14T04:39:05;53825.56;;;-145.06;100.00
59859;BME280;45734;53.648;9.566;2023-02-14T04:44:06;53882.25;;;-145.06;100.00
59859;BME280;45734;53.648;9.566;2023-02-14T04:49:06;53900.50;;;-145.06;100.00
59859;BME280;45734;53.648;9.566;2023-02-14T04:54:06;53847.84;;;-145.06;100.00
59859;BME280;45734;53.648;9.566;2023-02-14T04:59:07;53892.38;;;-145.06;100.00
59859;BME280;45734;53.648;9.566;2023-02-14T05:04:08;53868.09;;;-145.06;100.00
59859;BME280;45734;53.648;9.566;2023-02-14T05:09:08;53890.38;;;-145.06;100.00
59859;BME280;45734;53.648;9.566;2023-02-14T05:14:08;53851.88;;;-145.06;100.00
59859;BME280;45734;53.648;9.566;2023-02-14T05:19:09;53857.97;;;-145.06;100.00
59859;BME280;45734;53.648;9.566;2023-02-14T05:24:09;53880.22;;;-145.06;100.00
59859;BME280;45734;53.648;9.566;2023-02-14T05:29:10;53864.03;;;-145.06;100.00
59859;BME280;45734;53.648;9.566;2023-02-14T05:34:10;53880.22;;;-145.06;100.00
59859;BME280;45734;53.648;9.566;2023-02-14T05:39:11;53884.28;;;-145.06;100.00
59859;BME280;45734;53.648;9.566;2023-02-14T05:44:13;53876.19;;;-145.06;100.00
59859;BME280;45734;53.648;9.566;2023-02-14T05:49:13;53900.50;;;-145.06;100.00
59859;BME280;45734;53.648;9.566;2023-02-14T05:54:14;53859.97;;;-145.06;100.00
59859;BME280;45734;53.648;9.566;2023-02-14T05:59:14;53866.06;;;-145.06;100.00
59859;BME280;45734;53.648;9.566;2023-02-14T06:04:14;53892.38;;;-145.06;100.00
59859;BME280;45734;53.648;9.566;2023-02-14T06:09:15;53872.13;;;-145.06;100.00
59859;BME280;45734;53.648;9.566;2023-02-14T06:14:15;53859.97;;;-145.06;100.00
59859;BME280;45734;53.648;9.566;2023-02-14T06:19:15;53851.88;;;-145.06;100.00
59859;BME280;45734;53.648;9.566;2023-02-14T06:24:15;53884.28;;;-145.06;100.00
59859;BME280;45734;53.648;9.566;2023-02-14T06:29:16;53864.03;;;-145.06;100.00
59859;BME280;45734;53.648;9.566;2023-02-14T06:34:17;53890.38;;;-145.06;100.00
59859;BME280;45734;53.648;9.566;2023-02-14T06:39:17;53900.50;;;-145.06;100.00
59859;BME280;45734;53.648;9.566;2023-02-14T06:44:18;53843.78;;;-145.06;100.00
59859;BME280;45734;53.648;9.566;2023-02-14T06:49:18;53880.22;;;-145.06;100.00
59859;BME280;45734;53.648;9.566;2023-02-14T06:54:18;53857.97;;;-145.06;100.00
59859;BME280;45734;53.648;9.566;2023-02-14T06:59:19;53866.06;;;-145.06;100.00
59859;BME280;45734;53.648;9.566;2023-02-14T07:04:19;53868.09;;;-145.06;100.00
59859;BME280;45734;53.648;9.566;2023-02-14T07:09:19;53896.44;;;-145.06;100.00
59859;BME280;45734;53.648;9.566;2023-02-14T07:14:20;53888.34;;;-145.06;100.00
59859;BME280;45734;53.648;9.566;2023-02-14T07:19:20;53896.44;;;-145.06;100.00
59859;BME280;45734;53.648;9.566;2023-02-14T07:24:21;53864.03;;;-145.06;100.00
59859;BME280;45734;53.648;9.566;2023-02-14T07:29:21;53872.13;;;-145.06;100.00
59859;BME280;45734;53.648;9.566;2023-02-14T07:34:22;53823.53;;;-145.06;100.00
59859;BME280;45734;53.648;9.566;2023-02-14T07:39:22;53898.47;;;-145.06;100.00
59859;BME280;45734;53.648;9.566;2023-02-14T07:44:22;53870.09;;;-145.06;100.00
59859;BME280;45734;53.648;9.566;2023-02-14T07:49:23;53835.69;;;-145.06;100.00
59859;BME280;45734;53.648;9.566;2023-02-14T07:54:23;53864.03;;;-145.06;100.00
59859;BME280;45734;53.648;9.566;2023-02-14T07:59:23;53825.56;;;-145.06;100.00
59859;BME280;45734;53.648;9.566;2023-02-14T08:04:24;53874.16;;;-145.06;100.00
59859;BME280;45734;53.648;9.566;2023-02-14T08:09:25;53823.53;;;-145.06;100.00
59859;BME280;45734;53.648;9.566;2023-02-14T08:14:25;53868.09;;;-145.06;100.00
59859;BME280;45734;53.648;9.566;2023-02-14T08:19:25;53768.84;;;-145.06;100.00
59859;BME280;45734;53.648;9.566;2023-02-14T08:24:26;53793.16;;;-145.06;100.00
59859;BME280;45734;53.648;9.566;2023-02-14T08:29:26;53766.81;;;-145.06;100.00
59859;BME280;45734;53.648;9.566;2023-02-14T08:34:27;53778.97;;;-145.06;100.00
59859;BME280;45734;53.648;9.566;2023-02-14T08:39:27;53746.56;;;-145.06;100.00
59859;BME280;45734;53.648;9.566;2023-02-14T08:44:27;53781.00;;;-145.06;100.00
59859;BME280;45734;53.648;9.566;2023-02-14T08:49:27;53787.06;;;-145.06;100.00
59859;BME280;45734;53.648;9.566;2023-02-14T08:54:28;53770.88;;;-145.06;100.00
59859;BME280;45734;53.648;9.566;2023-02-14T08:59:28;53754.69;;;-145.06;100.00
59859;BME280;45734;53.648;9.566;2023-02-14T09:04:29;53722.28;;;-145.06;100.00
59859;BME280;45734;53.648;9.566;2023-02-14T09:09:30;53774.94;;;-145.06;100.00
59859;BME280;45734;53.648;9.566;2023-02-14T09:14:35;53787.06;;;-145.06;100.00
59859;BME280;45734;53.648;9.566;2023-02-14T09:19:36;53730.38;;;-145.06;100.00
59859;BME280;45734;53.648;9.566;2023-02-14T09:24:38;53789.09;;;-145.06;100.00
59859;BME280;45734;53.648;9.566;2023-02-14T09:29:38;53762.78;;;-145.06;100.00
59859;BME280;45734;53.648;9.566;2023-02-14T09:34:39;53768.84;;;-145.06;100.00
59859;BME280;45734;53.648;9.566;2023-02-14T09:39:39;53787.06;;;-145.06;100.00
59859;BME280;45734;53.648;9.566;2023-02-14T09:44:47;53750.63;;;-145.06;100.00
59859;BME280;45734;53.648;9.566;2023-02-14T09:49:51;53778.97;;;-145.06;100.00
59859;BME280;45734;53.648;9.566;2023-02-14T09:54:55;53801.25;;;-145.06;100.00
59859;BME280;45734;53.648;9.566;2023-02-14T10:05:18;53795.19;;;-145.06;100.00
59859;BME280;45734;53.648;9.566;2023-02-14T10:15:32;53807.31;;;-145.06;100.00
59859;BME280;45734;53.648;9.566;2023-02-14T10:20:38;53799.22;;;-145.06;100.00
59859;BME280;45734;53.648;9.566;2023-02-14T10:25:48;53813.41;;;-145.06;100.00
59859;BME280;45734;53.648;9.566;2023-02-14T10:31:31;53843.78;;;-145.06;100.00
59859;BME280;45734;53.648;9.566;2023-02-14T10:41:52;53823.53;;;-145.06;100.00
59859;BME280;45734;53.648;9.566;2023-02-14T10:58:37;53819.47;;;-145.06;100.00
59859;BME280;45734;53.648;9.566;2023-02-14T11:03:47;53868.09;;;-145.06;100.00
59859;BME280;45734;53.648;9.566;2023-02-14T11:08:50;53851.88;;;-145.06;100.00
59859;BME280;45734;53.648;9.566;2023-02-14T11:13:51;53831.63;;;-145.06;100.00
59859;BME280;45734;53.648;9.566;2023-02-14T11:19:07;53857.97;;;-145.06;100.00
59859;BME280;45734;53.648;9.566;2023-02-14T11:24:38;53825.56;;;-145.06;100.00
59859;BME280;45734;53.648;9.566;2023-02-14T11:34:44;53837.72;;;-145.06;100.00
59859;BME280;45734;53.648;9.566;2023-02-14T11:39:46;53845.81;;;-145.06;100.00
59859;BME280;45734;53.648;9.566;2023-02-14T11:44:54;53819.47;;;-145.06;100.00
59859;BME280;45734;53.648;9.566;2023-02-14T11:49:57;53847.84;;;-145.06;100.00
59859;BME280;45734;53.648;9.566;2023-02-14T11:55:00;53791.13;;;-145.06;100.00
59859;BME280;45734;53.648;9.566;2023-02-14T12:00:02;53868.09;;;-145.06;100.00
59859;BME280;45734;53.648;9.566;2023-02-14T12:05:18;53815.44;;;-145.06;100.00
59859;BME280;45734;53.648;9.566;2023-02-14T12:10:23;53807.31;;;-145.06;100.00
59859;BME280;45734;53.648;9.566;2023-02-14T12:15:37;53829.59;;;-145.06;100.00
59859;BME280;45734;53.648;9.566;2023-02-14T12:25:59;53823.53;;;-145.06;100.00
59859;BME280;45734;53.648;9.566;2023-02-14T12:31:01;53807.31;;;-145.06;100.00
59859;BME280;45734;53.648;9.566;2023-02-14T12:36:11;53819.47;;;-145.06;100.00
59859;BME280;45734;53.648;9.566;2023-02-14T12:57:35;53811.38;;;-145.06;100.00
59859;BME280;45734;53.648;9.566;2023-02-14T13:02:50;53776.94;;;-145.06;100.00
59859;BME280;45734;53.648;9.566;2023-02-14T13:13:04;53817.47;;;-145.06;100.00
59859;BME280;45734;53.648;9.566;2023-02-14T13:18:30;53874.16;;;-145.06;100.00
59859;BME280;45734;53.648;9.566;2023-02-14T13:23:37;53797.22;;;-145.06;100.00
59859;BME280;45734;53.648;9.566;2023-02-14T13:28:48;53823.53;;;-145.06;100.00
59859;BME280;45734;53.648;9.566;2023-02-14T13:33:51;53815.44;;;-145.06;100.00
59859;BME280;45734;53.648;9.566;2023-02-14T13:38:55;53795.19;;;-145.06;100.00
59859;BME280;45734;53.648;9.566;2023-02-14T13:43:57;53819.47;;;-145.06;100.00
59859;BME280;45734;53.648;9.566;2023-02-14T13:59:34;53791.13;;;-145.06;100.00
59859;BME280;45734;53.648;9.566;2023-02-14T14:04:36;53837.72;;;-145.06;100.00
59859;BME280;45734;53.648;9.566;2023-02-14T14:14:40;53809.34;;;-145.06;100.00
59859;BME280;45734;53.648;9.566;2023-02-14T14:19:41;53795.19;;;-145.06;100.00
59859;BME280;45734;53.648;9.566;2023-02-14T14:24:53;53785.06;;;-145.06;100.00
59859;BME280;45734;53.648;9.566;2023-02-14T14:29:56;53785.06;;;-145.06;100.00
59859;BME280;45734;53.648;9.566;2023-02-14T14:45:29;53789.09;;;-145.06;100.00
59859;BME280;45734;53.648;9.566;2023-02-14T14:50:34;53807.31;;;-145.06;100.00
59859;BME280;45734;53.648;9.566;2023-02-14T14:55:36;53839.72;;;-145.06;100.00
59859;BME280;45734;53.648;9.566;2023-02-14T15:00:38;53795.19;;;-145.06;100.00
59859;BME280;45734;53.648;9.566;2023-02-14T15:05:44;53815.44;;;-145.06;100.00
59859;BME280;45734;53.648;9.566;2023-02-14T15:11:12;53803.28;;;-145.06;100.00
59859;BME280;45734;53.648;9.566;2023-02-14T15:16:44;53817.47;;;-145.06;100.00
59859;BME280;45734;53.648;9.566;2023-02-14T15:21:46;53811.38;;;-145.06;100.00
59859;BME280;45734;53.648;9.566;2023-02-14T15:26:47;53797.22;;;-145.06;100.00
59859;BME280;45734;53.648;9.566;2023-02-14T15:31:48;53821.50;;;-145.06;100.00
59859;BME280;45734;53.648;9.566;2023-02-14T15:36:50;53827.59;;;-145.06;100.00
59859;BME280;45734;53.648;9.566;2023-02-14T15:41:53;53801.25;;;-145.06;100.00
59859;BME280;45734;53.648;9.566;2023-02-14T15:46:57;53813.41;;;-145.06;100.00
59859;BME280;45734;53.648;9.566;2023-02-14T15:52:01;53801.25;;;-145.06;100.00
59859;BME280;45734;53.648;9.566;2023-02-14T15:57:03;53815.44;;;-145.06;100.00
59859;BME280;45734;53.648;9.566;2023-02-14T16:02:35;53823.53;;;-145.06;100.00
59859;BME280;45734;53.648;9.566;2023-02-14T16:07:36;53866.06;;;-145.06;100.00
59859;BME280;45734;53.648;9.566;2023-02-14T16:12:39;53819.47;;;-145.06;100.00
59859;BME280;45734;53.648;9.566;2023-02-14T16:17:39;53807.31;;;-145.06;100.00
59859;BME280;45734;53.648;9.566;2023-02-14T16:22:41;53831.63;;;-145.06;100.00
59859;BME280;45734;53.648;9.566;2023-02-14T16:27:41;53847.84;;;-145.06;100.00
59859;BME280;45734;53.648;9.566;2023-02-14T16:32:41;53811.38;;;-145.06;100.00
59859;BME280;45734;53.648;9.566;2023-02-14T16:37:45;53874.16;;;-145.06;100.00
59859;BME280;45734;53.648;9.566;2023-02-14T16:42:46;53853.91;;;-145.06;100.00
59859;BME280;45734;53.648;9.566;2023-02-14T16:47:47;53851.88;;;-145.06;100.00
59859;BME280;45734;53.648;9.566;2023-02-14T16:52:49;53851.88;;;-145.06;100.00
59859;BME280;45734;53.648;9.566;2023-02-14T16:57:51;53817.47;;;-145.06;100.00
59859;BME280;45734;53.648;9.566;2023-02-14T17:02:53;53815.44;;;-145.06;100.00
59859;BME280;45734;53.648;9.566;2023-02-14T17:08:05;53827.59;;;-145.06;100.00
59859;BME280;45734;53.648;9.566;2023-02-14T17:13:06;53827.59;;;-145.06;100.00
59859;BME280;45734;53.648;9.566;2023-02-14T17:18:10;53815.44;;;-145.06;100.00
59859;BME280;45734;53.648;9.566;2023-02-14T17:23:12;53880.22;;;-145.06;100.00
59859;BME280;45734;53.648;9.566;2023-02-14T17:28:12;53864.03;;;-145.06;100.00
59859;BME280;45734;53.648;9.566;2023-02-14T17:33:13;53821.50;;;-145.06;100.00
59859;BME280;45734;53.648;9.566;2023-02-14T17:38:13;53841.75;;;-145.06;100.00
59859;BME280;45734;53.648;9.566;2023-02-14T17:43:13;53811.38;;;-145.06;100.00
59859;BME280;45734;53.648;9.566;2023-02-14T17:48:14;53851.88;;;-145.06;100.00
59859;BME280;45734;53.648;9.566;2023-02-14T17:53:14;53843.78;;;-145.06;100.00
59859;BME280;45734;53.648;9.566;2023-02-14T17:58:16;53837.72;;;-145.06;100.00
59859;BME280;45734;53.648;9.566;2023-02-14T18:03:17;53825.56;;;-145.06;100.00
59859;BME280;45734;53.648;9.566;2023-02-14T18:08:17;53821.50;;;-145.06;100.00
59859;BME280;45734;53.648;9.566;2023-02-14T18:13:21;53855.94;;;-145.06;100.00
59859;BME280;45734;53.648;9.566;2023-02-14T18:18:23;53845.81;;;-145.06;100.00
59859;BME280;45734;53.648;9.566;2023-02-14T18:23:24;53839.72;;;-145.06;100.00
59859;BME280;45734;53.648;9.566;2023-02-14T18:28:24;53876.19;;;-145.06;100.00
59859;BME280;45734;53.648;9.566;2023-02-14T18:33:26;53831.63;;;-145.06;100.00
59859;BME280;45734;53.648;9.566;2023-02-14T18:38:26;53866.06;;;-145.06;100.00
59859;BME280;45734;53.648;9.566;2023-02-14T18:43:26;53821.50;;;-145.06;100.00
59859;BME280;45734;53.648;9.566;2023-02-14T18:48:26;53884.28;;;-145.06;100.00
59859;BME280;45734;53.648;9.566;2023-02-14T18:53:27;53868.09;;;-145.06;100.00
59859;BME280;45734;53.648;9.566;2023-02-14T18:58:27;53874.16;;;-145.06;100.00
59859;BME280;45734;53.648;9.566;2023-02-14T19:03:27;53853.91;;;-145.06;100.00
59859;BME280;45734;53.648;9.566;2023-02-14T19:08:32;53876.19;;;-145.06;100.00
59859;BME280;45734;53.648;9.566;2023-02-14T19:13:33;53841.75;;;-145.06;100.00
59859;BME280;45734;53.648;9.566;2023-02-14T19:18:33;53819.47;;;-145.06;100.00
59859;BME280;45734;53.648;9.566;2023-02-14T19:23:33;53892.38;;;-145.06;100.00
59859;BME280;45734;53.648;9.566;2023-02-14T19:28:34;53884.28;;;-145.06;100.00
59859;BME280;45734;53.648;9.566;2023-02-14T19:33:40;53872.13;;;-145.06;100.00
59859;BME280;45734;53.648;9.566;2023-02-14T19:38:42;53843.78;;;-145.06;100.00
59859;BME280;45734;53.648;9.566;2023-02-14T19:43:43;53847.84;;;-145.06;100.00
59859;BME280;45734;53.648;9.566;2023-02-14T19:48:45;53833.66;;;-145.06;100.00
59859;BME280;45734;53.648;9.566;2023-02-14T19:53:46;53872.13;;;-145.06;100.00
59859;BME280;45734;53.648;9.566;2023-02-14T19:58:48;53859.97;;;-145.06;100.00
59859;BME280;45734;53.648;9.566;2023-02-14T20:03:49;53839.72;;;-145.06;100.00
59859;BME280;45734;53.648;9.566;2023-02-14T20:08:49;53888.34;;;-145.06;100.00
59859;BME280;45734;53.648;9.566;2023-02-14T20:13:51;53843.78;;;-145.06;100.00
59859;BME280;45734;53.648;9.566;2023-02-14T20:18:52;53876.19;;;-145.06;100.00
59859;BME280;45734;53.648;9.566;2023-02-14T20:24:03;53849.84;;;-145.06;100.00
59859;BME280;45734;53.648;9.566;2023-02-14T20:29:05;53829.59;;;-145.06;100.00
59859;BME280;45734;53.648;9.566;2023-02-14T20:34:05;53884.28;;;-145.06;100.00
59859;BME280;45734;53.648;9.566;2023-02-14T20:39:07;53872.13;;;-145.06;100.00
59859;BME280;45734;53.648;9.566;2023-02-14T20:44:11;53866.06;;;-145.06;100.00
59859;BME280;45734;53.648;9.566;2023-02-14T20:49:14;53837.72;;;-145.06;100.00
59859;BME280;45734;53.648;9.566;2023-02-14T20:54:19;53892.38;;;-145.06;100.00
59859;BME280;45734;53.648;9.566;2023-02-14T20:59:20;53831.63;;;-145.06;100.00
59859;BME280;45734;53.648;9.566;2023-02-14T21:04:26;53908.59;;;-145.06;100.00
59859;BME280;45734;53.648;9.566;2023-02-14T21:09:27;53857.97;;;-145.06;100.00
59859;BME280;45734;53.648;9.566;2023-02-14T21:14:27;53853.91;;;-145.06;100.00
59859;BME280;45734;53.648;9.566;2023-02-14T21:19:27;53839.72;;;-145.06;100.00
59859;BME280;45734;53.648;9.566;2023-02-14T21:24:28;53855.94;;;-145.06;100.00
59859;BME280;45734;53.648;9.566;2023-02-14T21:29:28;53876.19;;;-145.06;100.00
59859;BME280;45734;53.648;9.566;2023-02-14T21:34:28;53882.25;;;-145.06;100.00
59859;BME280;45734;53.648;9.566;2023-02-14T21:39:29;53866.06;;;-145.06;100.00
59859;BME280;45734;53.648;9.566;2023-02-14T21:44:34;53853.91;;;-145.06;100.00
59859;BME280;45734;53.648;9.566;2023-02-14T21:49:53;53847.84;;;-145.06;100.00
59859;BME280;45734;53.648;9.566;2023-02-14T21:55:12;53849.84;;;-145.06;100.00
59859;BME280;45734;53.648;9.566;2023-02-14T22:00:13;53851.88;;;-145.06;100.00
59859;BME280;45734;53.648;9.566;2023-02-14T22:05:13;53853.91;;;-145.06;100.00
59859;BME280;45734;53.648;9.566;2023-02-14T22:10:14;53890.38;;;-145.06;100.00
59859;BME280;45734;53.648;9.566;2023-02-14T22:15:14;53853.91;;;-145.06;100.00
59859;BME280;45734;53.648;9.566;2023-02-14T22:20:15;53882.25;;;-145.06;100.00
59859;BME280;45734;53.648;9.566;2023-02-14T22:25:15;53904.53;;;-145.06;100.00
59859;BME280;45734;53.648;9.566;2023-02-14T22:30:16;53898.47;;;-145.06;100.00
59859;BME280;45734;53.648;9.566;2023-02-14T22:35:16;53835.69;;;-145.06;100.00
59859;BME280;45734;53.648;9.566;2023-02-14T22:40:16;53878.22;;;-145.06;100.00
59859;BME280;45734;53.648;9.566;2023-02-14T22:45:17;53855.94;;;-145.06;100.00
59859;BME280;45734;53.648;9.566;2023-02-14T22:50:17;53898.47;;;-145.06;100.00
59859;BME280;45734;53.648;9.566;2023-02-14T22:55:18;53888.34;;;-145.06;100.00
59859;BME280;45734;53.648;9.566;2023-02-14T23:00:18;53878.22;;;-145.06;100.00
59859;BME280;45734;53.648;9.566;2023-02-14T23:05:18;53864.03;;;-145.06;100.00
59859;BME280;45734;53.648;9.566;2023-02-14T23:10:19;53876.19;;;-145.06;100.00
59859;BME280;45734;53.648;9.566;2023-02-14T23:15:19;53896.44;;;-145.06;100.00
59859;BME280;45734;53.648;9.566;2023-02-14T23:20:38;53912.63;;;-145.06;100.00
59859;BME280;45734;53.648;9.566;2023-02-14T23:26:01;53866.06;;;-145.06;100.00
59859;BME280;45734;53.648;9.566;2023-02-14T23:31:01;53849.84;;;-145.06;100.00
59859;BME280;45734;53.648;9.566;2023-02-14T23:36:02;53880.22;;;-145.06;100.00
59859;BME280;45734;53.648;9.566;2023-02-14T23:41:10;53892.38;;;-145.06;100.00
59859;BME280;45734;53.648;9.566;2023-02-14T23:46:29;53864.03;;;-145.06;100.00
59859;BME280;45734;53.648;9.566;2023-02-14T23:51:32;53855.94;;;-145.06;100.00
59859;BME280;45734;53.648;9.566;2023-02-14T23:56:33;53888.34;;;-145.06;100.00
